Time;durP1;ratioP1;P1;durP2;ratioP2;P2;SDS_P1;SDS_P2;PMS_P1;PMS_P2;Temp;Humidity;BMP_temperature;BMP_pressure;BME280_temperature;BME280_humidity;BME280_pressure;Samples;Min_cycle;Max_cycle;Signal;HPM_P1;HPM_P2
2022/11/14 00:05:14;;;;;;;2.60;1.95;;;;;;;18.93;49.96;101402.44;16123255;19;130496;-42
2022/11/14 00:10:36;;;;;;;2.78;1.90;;;;;;;18.89;49.75;101401.19;16121639;19;129557;-43
2022/11/14 00:15:58;;;;;;;2.88;2.22;;;;;;;18.83;49.59;101394.69;16124328;19;129549;-43
2022/11/14 00:21:20;;;;;;;3.45;2.00;;;;;;;18.82;49.44;101389.38;16121852;19;134434;-43
2022/11/14 00:26:41;;;;;;;4.18;2.35;;;;;;;18.79;49.73;101384.31;16122876;19;130489;-43
2022/11/14 00:32:03;;;;;;;4.45;2.10;;;;;;;18.76;49.23;101385.63;16123490;19;129335;-42
2022/11/14 00:37:25;;;;;;;3.78;2.30;;;;;;;18.72;49.63;101385.22;16124208;19;129595;-43
2022/11/14 00:42:47;;;;;;;3.45;2.22;;;;;;;18.70;49.49;101381.88;16122252;19;129437;-43
2022/11/14 00:48:09;;;;;;;3.70;1.98;;;;;;;18.69;49.64;101380.19;16122447;19;129503;-43
2022/11/14 00:53:31;;;;;;;4.18;1.83;;;;;;;18.67;49.26;101371.25;16122774;19;129460;-43
2022/11/14 00:58:53;;;;;;;3.33;2.20;;;;;;;18.65;49.25;101370.63;16123445;19;129658;-43
2022/11/14 01:04:14;;;;;;;3.13;2.20;;;;;;;18.63;49.36;101358.09;16135478;19;130202;-41
2022/11/14 01:09:36;;;;;;;3.97;1.90;;;;;;;18.61;49.26;101344.47;16134456;19;130764;-43
2022/11/14 01:14:58;;;;;;;2.47;1.90;;;;;;;18.58;49.27;101334.72;16135223;19;130150;-44
2022/11/14 01:20:19;;;;;;;3.42;2.10;;;;;;;18.57;49.10;101329.41;16137056;19;132169;-43
2022/11/14 01:25:42;;;;;;;2.60;2.10;;;;;;;18.55;49.37;101328.81;16136451;19;131354;-42
2022/11/14 01:31:19;;;;;;;3.45;2.15;;;;;;;18.56;48.93;101313.88;16137116;19;129532;-42
2022/11/14 01:36:41;;;;;;;3.00;2.30;;;;;;;18.53;49.39;101325.41;16135948;19;130010;-43
2022/11/14 01:42:03;;;;;;;2.13;1.77;;;;;;;18.52;48.91;101318.19;16137376;19;129610;-43
2022/11/14 01:47:29;;;;;;;3.28;2.13;;;;;;;18.50;49.16;101314.81;16136679;19;134447;-42
2022/11/14 01:52:50;;;;;;;2.60;2.20;;;;;;;18.47;48.85;101310.59;16133304;19;129629;-43
2022/11/14 01:58:13;;;;;;;2.38;1.83;;;;;;;18.45;48.88;101312.75;16133514;19;129464;-42
2022/11/14 02:03:37;;;;;;;3.95;2.28;;;;;;;18.45;48.81;101308.06;16132004;19;129489;-45
2022/11/14 02:09:03;;;;;;;2.83;1.98;;;;;;;18.43;48.88;101293.59;16132833;19;129447;-42
2022/11/14 02:14:26;;;;;;;;;;;;;;;18.39;48.92;101297.03;16135120;19;131885;-41
2022/11/14 02:20:00;;;;;;;2.47;2.00;;;;;;;18.40;49.25;101294.06;16131710;19;129553;-42
2022/11/14 02:25:26;;;;;;;2.23;1.60;;;;;;;18.38;49.00;101287.88;16131651;19;129651;-42
2022/11/14 02:30:48;;;;;;;2.35;1.70;;;;;;;18.37;49.36;101286.19;16130168;19;129760;-42
2022/11/14 02:36:10;;;;;;;3.15;1.92;;;;;;;18.35;48.91;101268.94;16132865;19;129877;-42
2022/11/14 02:41:31;;;;;;;2.15;1.88;;;;;;;18.34;49.18;101258.94;16131476;19;130085;-42
2022/11/14 02:46:53;;;;;;;3.13;2.35;;;;;;;18.34;48.85;101256.19;16130551;19;129734;-42
2022/11/14 02:52:16;;;;;;;1.98;1.63;;;;;;;18.34;49.13;101260.88;16130173;19;129660;-43
2022/11/14 02:57:37;;;;;;;2.42;1.60;;;;;;;18.31;49.17;101249.19;16129608;19;131195;-42
2022/11/14 03:02:59;;;;;;;2.40;1.65;;;;;;;18.29;48.75;101250.50;16130474;19;129996;-44
2022/11/14 03:08:21;;;;;;;2.97;1.90;;;;;;;18.29;48.74;101247.75;16129505;19;131192;-43
2022/11/14 03:13:42;;;;;;;1.98;1.77;;;;;;;18.25;48.51;101240.97;16128068;19;129782;-43
2022/11/14 03:19:04;;;;;;;2.72;1.90;;;;;;;18.24;48.56;101250.38;16128445;19;129682;-44
2022/11/14 03:24:26;;;;;;;1.92;1.73;;;;;;;18.24;48.82;101247.59;16127604;19;129882;-41
2022/11/14 03:29:48;;;;;;;1.65;1.55;;;;;;;18.22;48.71;101238.69;16127751;19;129277;-43
2022/11/14 03:35:09;;;;;;;1.83;1.65;;;;;;;18.20;48.66;101246.41;16130131;19;129414;-43
2022/11/14 03:40:31;;;;;;;2.00;1.63;;;;;;;18.20;48.89;101249.16;16127670;19;129528;-43
2022/11/14 03:45:53;;;;;;;2.17;1.65;;;;;;;18.18;48.93;101237.47;16125251;19;130723;-44
2022/11/14 03:51:15;;;;;;;1.85;1.42;;;;;;;18.17;48.91;101230.25;16128197;19;130217;-42
2022/11/14 03:56:37;;;;;;;1.80;1.45;;;;;;;18.17;48.71;101231.09;16125050;19;129643;-42
2022/11/14 04:01:58;;;;;;;4.65;1.80;;;;;;;18.14;48.85;101221.31;16118370;19;130723;-43
2022/11/14 04:07:20;;;;;;;2.13;1.73;;;;;;;18.13;48.83;101210.50;16124759;19;130294;-42
2022/11/14 04:12:52;;;;;;;1.70;1.45;;;;;;;18.12;48.53;101208.81;16124119;19;129699;-43
2022/11/14 04:18:14;;;;;;;2.25;1.52;;;;;;;18.11;48.87;101198.81;16125597;19;130916;-43
2022/11/14 04:23:36;;;;;;;3.47;1.40;;;;;;;18.08;48.45;101191.84;16121370;19;130434;-32
2022/11/14 04:28:57;;;;;;;1.58;1.30;;;;;;;18.08;48.51;101185.44;16122034;19;129294;-33
2022/11/14 04:34:19;;;;;;;1.80;1.20;;;;;;;18.06;48.88;101188.44;16119998;19;129493;-33
2022/11/14 04:39:41;;;;;;;1.95;1.23;;;;;;;18.06;48.69;101184.81;16124721;19;129843;-33
2022/11/14 04:45:03;;;;;;;1.60;1.50;;;;;;;18.04;48.55;101190.59;16121355;19;130581;-33
2022/11/14 04:50:25;;;;;;;1.80;1.17;;;;;;;18.02;48.58;101181.69;16120281;19;131615;-33
2022/11/14 04:55:46;;;;;;;1.30;1.20;;;;;;;18.03;48.77;101188.09;16121094;19;130649;-33
2022/11/14 05:01:09;;;;;;;2.15;1.50;;;;;;;18.01;48.82;101174.47;16121384;19;129302;-32
2022/11/14 05:06:31;;;;;;;2.03;1.50;;;;;;;18.01;48.62;101160.63;16121390;19;129459;-32
2022/11/14 05:11:53;;;;;;;1.60;1.25;;;;;;;17.99;48.39;101165.53;16118205;19;130716;-33
2022/11/14 05:17:15;;;;;;;1.88;1.20;;;;;;;17.98;48.53;101163.84;16118535;19;130845;-32
2022/11/14 05:22:36;;;;;;;1.48;1.17;;;;;;;17.96;48.48;101158.56;16116965;19;131137;-33
2022/11/14 05:27:58;;;;;;;1.23;1.10;;;;;;;17.97;48.86;101164.97;16120291;19;129557;-32
2022/11/14 05:33:20;;;;;;;1.77;1.10;;;;;;;17.95;48.90;101158.81;16116880;19;135866;-33
2022/11/14 05:38:42;;;;;;;1.35;1.02;;;;;;;17.95;48.94;101167.13;16118566;19;130813;-32
2022/11/14 05:44:04;;;;;;;1.25;0.95;;;;;;;17.94;48.46;101162.66;16118196;19;129906;-32
2022/11/14 05:49:25;;;;;;;1.48;1.00;;;;;;;17.93;48.97;101149.91;16131117;19;130845;-32
2022/11/14 05:54:47;;;;;;;1.77;1.17;;;;;;;17.91;48.64;101152.03;16131315;19;130168;-32
2022/11/14 06:00:10;;;;;;;2.83;1.00;;;;;;;17.89;48.53;101160.59;16132360;19;129860;-32
2022/11/14 06:05:33;;;;;;;1.17;0.80;;;;;;;17.90;48.75;101150.34;16131728;19;130808;-32
2022/11/14 06:10:55;;;;;;;1.38;1.10;;;;;;;17.90;48.69;101155.91;16130107;19;130982;-32
2022/11/14 06:16:18;;;;;;;2.25;1.20;;;;;;;17.89;48.77;101155.06;16131240;19;129612;-32
2022/11/14 06:21:40;;;;;;;3.17;1.10;;;;;;;17.90;48.52;101162.28;16129167;19;132099;-33
2022/11/14 06:27:01;;;;;;;4.15;1.25;;;;;;;17.90;48.80;101161.44;16131679;19;129405;-32
2022/11/14 06:32:23;;;;;;;1.45;1.30;;;;;;;17.88;48.35;101166.34;16130433;19;129875;-32
2022/11/14 06:37:45;;;;;;;3.65;1.23;;;;;;;17.88;48.45;101169.13;16129673;19;130979;-32
2022/11/14 06:43:06;;;;;;;1.75;1.30;;;;;;;17.87;48.68;101172.97;16127611;19;130402;-33
2022/11/14 06:48:28;;;;;;;3.17;1.20;;;;;;;17.85;48.19;101179.56;16130630;19;129464;-33
2022/11/14 06:53:50;;;;;;;1.30;1.20;;;;;;;17.84;48.17;101175.16;16124189;19;129787;-32
2022/11/14 06:59:13;;;;;;;1.48;1.05;;;;;;;17.82;48.23;101171.75;16115835;19;129812;-32
2022/11/14 07:04:34;;;;;;;3.13;1.55;;;;;;;17.81;48.23;101177.50;16116544;19;130687;-32
2022/11/14 07:09:57;;;;;;;5.57;1.20;;;;;;;18.04;47.48;101165.69;16121421;19;130355;-32
2022/11/14 07:15:19;;;;;;;3.97;1.40;;;;;;;18.45;46.99;101169.53;16129103;19;129601;-32
2022/11/14 07:20:41;;;;;;;4.13;1.50;;;;;;;18.73;46.08;101167.13;16123495;19;129324;-32
2022/11/14 07:26:07;;;;;;;4.70;1.63;;;;;;;19.12;45.24;101170.25;16120638;19;130881;-35
2022/11/14 07:31:29;;;;;;;2.10;1.45;;;;;;;19.53;44.44;101173.06;16124520;19;130531;-33
2022/11/14 07:36:50;;;;;;;3.03;1.70;;;;;;;20.31;42.84;101163.41;16124369;19;129792;-33
2022/11/14 07:42:12;;;;;;;4.38;1.58;;;;;;;20.82;41.78;101157.84;16126902;19;129357;-33
2022/11/14 07:47:34;;;;;;;2.20;1.48;;;;;;;20.19;42.71;101158.75;16121687;19;129191;-32
2022/11/14 07:52:56;;;;;;;4.30;1.25;;;;;;;20.28;42.64;101168.38;16123841;19;129471;-33
2022/11/14 07:58:18;;;;;;;4.97;1.20;;;;;;;20.10;42.83;101163.03;16122632;19;130149;-32
2022/11/14 08:03:41;;;;;;;4.15;1.25;;;;;;;19.84;43.28;101152.28;16120959;19;131741;-32
2022/11/14 08:09:06;;;;;;;2.65;1.50;;;;;;;19.21;43.97;101142.97;16120969;19;130484;-32
2022/11/14 08:14:28;;;;;;;3.13;1.60;;;;;;;19.43;44.01;101140.38;16122215;19;129485;-32
2022/11/14 08:19:50;;;;;;;3.97;1.23;;;;;;;19.22;43.98;101130.81;16117479;19;130955;-32
2022/11/14 08:25:11;;;;;;;2.53;1.27;;;;;;;18.84;45.11;101130.25;16120935;19;130365;-32
2022/11/14 08:30:33;;;;;;;4.93;1.20;;;;;;;18.60;45.25;101127.50;16121035;19;130490;-32
2022/11/14 08:35:55;;;;;;;3.28;1.38;;;;;;;18.44;45.61;101117.13;16123105;19;129510;-32
2022/11/14 08:41:16;;;;;;;1.50;1.10;;;;;;;18.31;46.33;101107.94;16122572;19;129357;-32
2022/11/14 08:46:38;;;;;;;1.20;0.95;;;;;;;18.21;46.16;101104.94;16120137;19;129595;-33
2022/11/14 08:52:00;;;;;;;1.77;1.33;;;;;;;18.15;46.27;101109.50;16117055;19;129433;-33
2022/11/14 08:57:21;;;;;;;2.83;1.40;;;;;;;18.12;46.75;101109.13;16112306;19;130346;-32
2022/11/14 09:02:43;;;;;;;2.15;1.20;;;;;;;18.06;46.57;101110.94;16107983;19;130478;-32
2022/11/14 09:08:05;;;;;;;2.33;1.17;;;;;;;18.02;46.93;101089.50;16115018;19;130519;-32
2022/11/14 09:13:27;;;;;;;1.83;1.20;;;;;;;18.00;47.11;101095.25;16117519;19;129505;-32
2022/11/14 09:18:49;;;;;;;1.50;1.20;;;;;;;17.97;47.19;101090.22;16118388;19;131938;-33
2022/11/14 09:24:11;;;;;;;2.22;1.15;;;;;;;17.96;47.21;101094.91;16135796;19;129309;-32
2022/11/14 09:29:33;;;;;;;1.38;1.10;;;;;;;17.94;46.91;101090.69;16135480;19;129239;-32
2022/11/14 09:34:55;;;;;;;1.65;1.02;;;;;;;17.92;47.15;101087.31;16132716;19;131024;-32
2022/11/14 09:40:16;;;;;;;2.45;1.23;;;;;;;17.91;47.45;101085.63;16134222;19;130745;-32
2022/11/14 09:45:45;;;;;;;4.50;1.40;;;;;;;17.89;47.15;101080.34;16131975;19;129386;-32
2022/11/14 09:51:15;;;;;;;1.20;1.05;;;;;;;17.89;47.18;101087.78;16131813;19;129462;-32
2022/11/14 09:56:37;;;;;;;1.38;0.90;;;;;;;17.87;47.26;101078.88;16132844;19;129868;-32
2022/11/14 10:02:14;;;;;;;1.63;1.13;;;;;;;17.85;47.38;101077.16;16131445;19;129306;-32
2022/11/14 10:08:13;;;;;;;2.80;1.13;;;;;;;17.85;47.53;101071.63;16129687;19;129529;-32
2022/11/14 10:14:12;;;;;;;1.88;1.10;;;;;;;17.83;47.57;101051.69;16130301;19;130391;-32
2022/11/14 10:19:45;;;;;;;2.05;1.13;;;;;;;17.82;47.47;101066.59;16130542;19;129451;-32
2022/11/14 10:25:24;;;;;;;2.85;0.95;;;;;;;17.82;47.71;101054.66;16129404;19;129607;-32
2022/11/14 10:31:05;;;;;;;2.20;1.10;;;;;;;17.82;47.86;101050.00;16127428;19;130407;-32
2022/11/14 10:36:38;;;;;;;2.35;1.00;;;;;;;17.79;47.54;101044.94;16130612;19;129310;-32
2022/11/14 10:42:08;;;;;;;2.38;1.15;;;;;;;17.79;47.87;101033.84;16131785;19;129523;-32
2022/11/14 10:47:39;;;;;;;3.05;1.10;;;;;;;17.79;47.83;101038.53;16129166;19;130806;-32
2022/11/14 10:53:05;;;;;;;1.88;1.10;;;;;;;17.77;48.05;101029.66;16130039;19;130377;-33
2022/11/14 10:58:28;;;;;;;1.83;1.10;;;;;;;17.76;47.97;101034.31;16129158;19;129698;-32
2022/11/14 11:03:50;;;;;;;4.05;1.38;;;;;;;17.76;47.88;101039.88;16129044;19;129798;-32
2022/11/14 11:15:38;;;;;;;1.52;0.93;;;;;;;17.75;47.86;101040.13;16127635;19;130286;-32
2022/11/14 11:21:07;;;;;;;1.17;1.08;;;;;;;17.74;47.97;101035.66;16127815;19;134509;-32
2022/11/14 11:26:31;;;;;;;2.80;0.93;;;;;;;17.73;47.72;101033.97;16128233;19;129354;-32
2022/11/14 11:31:52;;;;;;;1.55;1.10;;;;;;;17.72;47.85;101030.38;16125647;19;129612;-32
2022/11/14 11:37:20;;;;;;;4.20;1.15;;;;;;;17.72;47.89;101026.75;16128012;19;129635;-32
2022/11/14 11:42:50;;;;;;;2.67;1.15;;;;;;;17.72;48.01;101012.91;16124126;19;129649;-32
2022/11/14 11:48:39;;;;;;;1.77;1.00;;;;;;;17.72;47.83;101016.53;16125227;19;129386;-32
2022/11/14 11:54:24;;;;;;;2.20;1.20;;;;;;;17.71;47.82;101014.84;16125923;19;129105;-32
2022/11/14 11:59:51;;;;;;;2.85;1.60;;;;;;;17.69;47.95;101005.94;16122920;19;130200;-32
2022/11/14 12:05:17;;;;;;;2.15;1.73;;;;;;;17.68;47.66;101009.78;16125099;19;129828;-32
2022/11/14 12:10:40;;;;;;;1.48;1.20;;;;;;;17.66;47.84;101011.94;16124472;19;129672;-33
2022/11/14 12:16:11;;;;;;;2.13;1.20;;;;;;;17.67;47.50;101006.16;16124063;19;130634;-33
2022/11/14 12:21:53;;;;;;;1.20;1.08;;;;;;;17.66;47.83;100998.09;16125123;19;129460;-32
2022/11/14 12:27:29;;;;;;;1.98;1.30;;;;;;;17.64;47.96;100992.81;16122993;19;129548;-32
2022/11/14 12:32:59;;;;;;;1.83;1.00;;;;;;;17.65;47.90;100999.19;16121258;19;129875;-32
2022/11/14 12:38:22;;;;;;;4.43;1.63;;;;;;;17.63;47.97;100990.28;16124087;19;130205;-33
2022/11/14 12:43:44;;;;;;;1.90;1.20;;;;;;;17.62;47.79;100980.28;16122772;19;129307;-32
2022/11/14 12:49:43;;;;;;;2.30;1.48;;;;;;;17.63;47.92;100995.81;16121538;19;129751;-32
2022/11/14 12:55:25;;;;;;;1.88;1.30;;;;;;;17.62;47.55;100994.13;16121685;19;130374;-32
2022/11/14 13:00:49;;;;;;;1.83;1.27;;;;;;;17.60;47.52;100986.06;16119765;19;129001;-32
2022/11/14 13:06:36;;;;;;;4.37;1.40;;;;;;;17.62;47.39;100996.88;16120449;19;130006;-32
2022/11/14 13:23:28;;;;;;;2.75;1.77;;;;;;;17.56;47.36;100970.19;16119284;19;129583;-33
2022/11/14 13:28:52;;;;;;;2.23;1.30;;;;;;;17.53;47.34;100961.25;16103607;19;130914;-33
2022/11/14 13:34:50;;;;;;;2.22;1.75;;;;;;;17.56;47.14;100957.19;16120012;19;129828;-33
2022/11/14 13:40:43;;;;;;;1.73;1.38;;;;;;;17.54;47.26;100946.38;16118938;19;130524;-33
2022/11/14 13:46:20;;;;;;;3.63;1.67;;;;;;;17.53;47.54;100947.41;16117530;19;131336;-33
2022/11/14 13:51:43;;;;;;;2.72;1.30;;;;;;;17.50;47.55;100942.34;16116658;19;130506;-33
2022/11/14 13:57:29;;;;;;;2.22;1.50;;;;;;;17.52;47.48;100942.97;16120664;19;131155;-33
2022/11/14 14:03:02;;;;;;;2.65;1.30;;;;;;;17.50;47.24;100928.53;16115759;19;129843;-33
2022/11/14 14:08:39;;;;;;;1.95;1.45;;;;;;;17.49;47.73;100918.53;16129155;19;129610;-33
2022/11/14 14:14:22;;;;;;;4.20;1.60;;;;;;;17.50;47.67;100906.41;16132381;19;129511;-33
2022/11/14 14:20:17;;;;;;;2.17;1.50;;;;;;;17.48;47.73;100911.31;16130881;19;129784;-33
2022/11/14 14:25:47;;;;;;;1.63;1.40;;;;;;;17.47;47.42;100912.44;16131307;19;129508;-33
2022/11/14 14:31:22;;;;;;;2.03;1.30;;;;;;;17.46;47.46;100898.81;16131945;19;129571;-33
2022/11/14 14:36:52;;;;;;;2.47;1.27;;;;;;;17.46;47.60;100904.34;16127900;19;130448;-33
2022/11/14 14:42:17;;;;;;;1.92;1.23;;;;;;;17.45;47.70;100910.97;16127720;19;130674;-33
2022/11/14 14:47:41;;;;;;;1.50;1.08;;;;;;;17.46;47.59;100923.72;16128981;19;130371;-33
2022/11/14 14:53:04;;;;;;;2.33;1.30;;;;;;;17.47;47.79;100922.63;16129066;19;129360;-33
2022/11/14 14:58:29;;;;;;;3.83;1.83;;;;;;;17.49;47.30;100928.78;16128576;19;129362;-33
2022/11/14 15:04:04;;;;;;;4.70;1.67;;;;;;;17.50;47.47;100922.16;16120026;19;129474;-34
2022/11/14 15:09:31;;;;;;;3.78;1.60;;;;;;;17.48;47.66;100916.84;16124533;19;129869;-33
2022/11/14 15:14:53;;;;;;;4.07;1.85;;;;;;;17.48;47.33;100903.03;16122402;19;129570;-33
2022/11/14 15:20:24;;;;;;;5.90;2.08;;;;;;;17.49;47.20;100901.94;16123307;19;129911;-33
2022/11/14 15:25:46;;;;;;;5.93;1.90;;;;;;;17.45;47.08;100903.53;16125984;19;130619;-33
2022/11/14 15:31:17;;;;;;;8.23;1.63;;;;;;;17.47;47.37;100897.75;16124942;19;130082;-33
2022/11/14 15:37:17;;;;;;;2.92;2.15;;;;;;;17.45;46.87;100892.47;16122506;19;129467;-34
2022/11/14 15:42:39;;;;;;;8.10;2.35;;;;;;;17.43;47.14;100897.38;16121995;19;129947;-33
2022/11/14 15:48:04;;;;;;;3.78;2.30;;;;;;;17.41;46.79;100894.00;16122529;19;129958;-33
2022/11/14 15:53:28;;;;;;;3.58;2.55;;;;;;;17.41;46.46;100899.53;16121007;19;131480;-33
2022/11/14 15:58:50;;;;;;;3.83;2.33;;;;;;;17.42;46.90;100884.63;16120912;19;129723;-33
2022/11/14 16:04:16;;;;;;;3.03;1.85;;;;;;;17.42;46.89;100872.72;16126910;19;130450;-33
2022/11/14 16:09:38;;;;;;;3.80;1.90;;;;;;;17.41;46.59;100873.81;16118032;19;129034;-33
2022/11/14 16:15:00;;;;;;;8.70;1.70;;;;;;;17.41;46.65;100880.19;16122919;19;129870;-33
2022/11/14 16:20:25;;;;;;;1.90;1.58;;;;;;;17.40;46.75;100870.19;16119012;19;129729;-33
2022/11/14 16:25:47;;;;;;;3.10;1.67;;;;;;;17.38;46.93;100877.88;16115907;19;129889;-33
2022/11/14 16:31:13;;;;;;;2.83;1.70;;;;;;;17.38;46.63;100883.41;16120668;19;130569;-33
2022/11/14 16:36:35;;;;;;;;;;;;;;;17.32;46.22;100873.31;16118748;19;131129;-33
2022/11/14 16:42:01;;;;;;;3.92;2.40;;;;;;;17.33;46.20;100867.53;16118366;19;129723;-34
2022/11/14 16:47:23;;;;;;;5.30;2.28;;;;;;;17.32;46.48;100882.44;16119866;19;129555;-34
2022/11/14 16:52:45;;;;;;;4.05;2.40;;;;;;;17.33;46.52;100877.78;16118039;19;129508;-33
2022/11/14 16:58:06;;;;;;;2.45;1.60;;;;;;;17.33;46.50;100875.00;16118075;19;131413;-33
2022/11/14 17:03:30;;;;;;;3.13;1.73;;;;;;;17.33;46.24;100875.84;16120977;19;130284;-33
2022/11/14 17:08:59;;;;;;;3.08;2.05;;;;;;;17.34;46.25;100880.28;16116606;19;130315;-33
2022/11/14 17:14:21;;;;;;;2.20;1.70;;;;;;;17.32;46.43;100885.22;16116808;19;130473;-33
2022/11/14 17:19:44;;;;;;;3.22;1.77;;;;;;;17.33;46.17;100872.25;16115668;19;129472;-33
2022/11/14 17:25:07;;;;;;;4.85;1.88;;;;;;;17.34;46.65;100849.06;16116711;19;130538;-33
2022/11/14 17:30:28;;;;;;;4.82;1.50;;;;;;;17.34;46.61;100860.94;16116231;19;131243;-33
2022/11/14 17:35:50;;;;;;;3.97;1.33;;;;;;;17.33;46.39;100863.94;16114694;19;129405;-33
2022/11/14 17:41:12;;;;;;;2.80;1.50;;;;;;;17.34;46.82;100879.47;16120420;19;129296;-33
2022/11/14 17:46:34;;;;;;;3.03;1.60;;;;;;;17.33;46.52;100873.06;16130180;19;129582;-32
2022/11/14 17:51:56;;;;;;;2.65;1.80;;;;;;;17.34;46.89;100874.75;16130737;19;129767;-33
2022/11/14 17:57:18;;;;;;;3.40;1.70;;;;;;;17.35;47.13;100864.56;16127231;19;129951;-32
2022/11/14 18:02:39;;;;;;;10.80;1.98;;;;;;;17.40;46.96;100881.25;16128459;19;129315;-33
2022/11/14 18:08:01;;;;;;;4.90;1.50;;;;;;;17.54;46.90;100868.91;16130521;19;129536;-33
2022/11/14 18:13:23;;;;;;;7.47;1.73;;;;;;;17.95;46.25;100860.69;16129811;19;129526;-33
2022/11/14 18:18:45;;;;;;;9.23;1.38;;;;;;;18.56;45.83;100865.03;16124611;19;129639;-33
2022/11/14 18:24:11;;;;;;;6.47;1.65;;;;;;;19.22;45.27;100856.22;16127803;19;129986;-32
2022/11/14 18:29:33;;;;;;;11.60;1.75;;;;;;;19.75;44.70;100851.22;16129340;19;130302;-33
2022/11/14 18:34:54;;;;;;;5.88;1.65;;;;;;;20.19;43.62;100864.31;16125904;19;129553;-33
2022/11/14 18:40:17;;;;;;;11.27;2.67;;;;;;;20.48;43.36;100871.63;16127033;19;130057;-32
2022/11/14 18:45:38;;;;;;;3.28;1.60;;;;;;;20.60;43.21;100859.25;16126878;19;129312;-33
2022/11/14 18:51:10;;;;;;;6.85;2.20;;;;;;;20.55;43.72;100856.41;16127505;19;130856;-33
2022/11/14 18:56:32;;;;;;;12.40;2.42;;;;;;;20.44;43.64;100866.56;16121767;19;129550;-33
2022/11/14 19:01:54;;;;;;;14.32;2.80;;;;;;;20.31;43.96;100861.41;16121666;19;129485;-33
2022/11/14 19:07:15;;;;;;;17.38;2.58;;;;;;;20.17;44.54;100849.88;16125361;19;129742;-33
2022/11/14 19:12:37;;;;;;;26.63;2.85;;;;;;;20.04;44.53;100845.53;16124710;19;130983;-32
2022/11/14 19:17:59;;;;;;;17.95;2.38;;;;;;;19.92;45.20;100847.53;16124277;19;130084;-33
2022/11/14 19:23:20;;;;;;;14.13;2.95;;;;;;;19.81;45.56;100833.53;16120163;19;129619;-33
2022/11/14 19:28:42;;;;;;;10.45;2.28;;;;;;;19.73;45.52;100834.00;16124271;19;129563;-32
2022/11/14 19:34:04;;;;;;;13.13;2.67;;;;;;;19.64;46.07;100827.16;16126730;19;129747;-33
2022/11/14 19:39:26;;;;;;;10.43;2.58;;;;;;;19.56;45.99;100822.94;16128147;19;129895;-33
2022/11/14 19:44:48;;;;;;;11.98;2.05;;;;;;;19.48;46.29;100823.34;16126843;19;130632;-33
2022/11/14 19:50:10;;;;;;;10.68;2.20;;;;;;;19.41;46.36;100825.47;16124095;19;130274;-32
2022/11/14 19:55:31;;;;;;;8.02;2.50;;;;;;;19.32;46.73;100817.56;16125034;19;129326;-32
2022/11/14 20:01:01;;;;;;;10.77;2.17;;;;;;;19.25;46.72;100814.13;16125071;19;129966;-33
2022/11/14 20:06:31;;;;;;;11.20;2.15;;;;;;;19.19;47.34;100823.44;16121739;19;129752;-33
2022/11/14 20:11:53;;;;;;;9.55;2.50;;;;;;;19.22;46.98;100803.53;16121168;19;130026;-32
2022/11/14 20:17:14;;;;;;;7.63;1.77;;;;;;;19.31;47.17;100801.19;16120562;19;129030;-33
2022/11/14 20:22:36;;;;;;;10.05;2.10;;;;;;;19.43;47.25;100795.53;16121668;19;130487;-33
2022/11/14 20:27:58;;;;;;;8.35;2.00;;;;;;;19.58;46.90;100792.97;16119419;19;129507;-33
2022/11/14 20:33:20;;;;;;;12.65;2.60;;;;;;;19.68;46.43;100784.81;16117567;19;134635;-34
2022/11/14 20:38:43;;;;;;;14.48;2.40;;;;;;;19.84;46.03;100782.19;16120634;19;129119;-32
2022/11/14 20:44:04;;;;;;;11.98;2.03;;;;;;;19.96;46.18;100787.63;16120740;19;129606;-33
2022/11/14 20:49:27;;;;;;;14.52;2.50;;;;;;;19.98;46.07;100783.50;16119969;19;130204;-33
2022/11/14 20:54:49;;;;;;;13.00;2.17;;;;;;;19.99;46.31;100787.13;16117765;19;129777;-33
2022/11/14 21:00:11;;;;;;;7.38;2.42;;;;;;;19.94;46.31;100773.16;16122547;19;129626;-43
2022/11/14 21:05:37;;;;;;;4.78;1.95;;;;;;;19.89;46.45;100773.94;16116955;19;129472;-43
2022/11/14 21:11:01;;;;;;;10.98;2.25;;;;;;;19.83;46.60;100766.63;16119809;19;130279;-44
2022/11/14 21:16:35;;;;;;;7.50;2.08;;;;;;;19.79;46.63;100765.50;16121151;19;130131;-43
2022/11/14 21:21:56;;;;;;;7.53;1.58;;;;;;;19.69;47.12;100764.25;16134002;19;129810;-43
2022/11/14 21:27:18;;;;;;;12.55;2.38;;;;;;;19.60;47.10;100768.56;16132964;19;129873;-43
2022/11/14 21:32:40;;;;;;;13.48;2.30;;;;;;;19.50;46.96;100757.34;16127766;19;131809;-44
2022/11/14 21:38:02;;;;;;;4.97;2.03;;;;;;;19.41;46.87;100767.22;16126760;19;129913;-43
2022/11/14 21:43:23;;;;;;;9.57;2.25;;;;;;;19.31;47.33;100773.44;16126158;19;130199;-43
2022/11/14 21:48:47;;;;;;;4.25;2.00;;;;;;;19.22;47.08;100767.47;16127644;19;131258;-43
2022/11/14 21:54:08;;;;;;;4.47;1.65;;;;;;;19.15;47.49;100772.34;16132659;19;129690;-43
2022/11/14 21:59:30;;;;;;;6.47;1.55;;;;;;;19.06;47.25;100763.59;16131648;19;130144;-43
2022/11/14 22:04:52;;;;;;;6.65;1.92;;;;;;;18.98;47.42;100751.00;16134991;19;129659;-43
2022/11/14 22:10:14;;;;;;;6.65;1.80;;;;;;;18.91;47.73;100753.13;16132530;19;129560;-43
2022/11/14 22:15:35;;;;;;;3.25;1.50;;;;;;;18.86;47.85;100755.78;16130457;19;129578;-44
2022/11/14 22:20:58;;;;;;;2.00;1.27;;;;;;;18.82;47.94;100757.41;16135047;19;130733;-44
2022/11/14 22:26:21;;;;;;;8.90;1.42;;;;;;;18.77;47.58;100738.75;16135941;19;129726;-43
2022/11/14 22:31:42;;;;;;;3.08;1.20;;;;;;;18.72;47.71;100747.81;16134254;19;129869;-43
2022/11/14 22:37:04;;;;;;;1.67;1.17;;;;;;;18.68;47.66;100752.19;16130912;19;129806;-43
2022/11/14 22:42:26;;;;;;;4.00;1.40;;;;;;;18.64;48.12;100752.94;16126142;19;130388;-43
2022/11/14 22:47:47;;;;;;;5.93;1.20;;;;;;;18.58;48.19;100749.25;16134711;19;129408;-42
2022/11/14 22:53:09;;;;;;;4.10;1.35;;;;;;;18.54;48.24;100748.88;16130213;19;129794;-44
2022/11/14 22:58:36;;;;;;;2.83;1.20;;;;;;;18.51;48.14;100748.56;16131665;19;129734;-41
2022/11/14 23:04:01;;;;;;;2.05;1.20;;;;;;;18.47;47.99;100751.00;16130944;19;130397;-41
2022/11/14 23:09:23;;;;;;;3.55;1.10;;;;;;;18.44;47.90;100738.50;16127772;19;131024;-41
2022/11/14 23:14:45;;;;;;;2.53;1.15;;;;;;;18.41;48.27;100738.13;16127506;19;129629;-41
2022/11/14 23:20:07;;;;;;;3.50;1.20;;;;;;;18.38;48.08;100736.66;16124368;19;129552;-43
2022/11/14 23:25:36;;;;;;;2.67;1.13;;;;;;;18.35;48.27;100742.69;16123591;19;129620;-42
2022/11/14 23:30:59;;;;;;;2.08;1.10;;;;;;;18.31;48.11;100742.38;16129193;19;130656;-43
2022/11/14 23:36:21;;;;;;;2.50;1.30;;;;;;;18.29;48.41;100743.72;16131244;19;129543;-42
2022/11/14 23:41:42;;;;;;;3.08;0.90;;;;;;;18.25;48.36;100736.97;16127220;19;130071;-42
2022/11/14 23:47:04;;;;;;;2.53;1.33;;;;;;;18.22;48.34;100731.94;16129163;19;129907;-42
2022/11/14 23:52:26;;;;;;;2.15;1.33;;;;;;;18.21;48.12;100733.03;16128776;19;129447;-42
2022/11/14 23:57:47;;;;;;;1.67;1.10;;;;;;;18.20;48.58;100736.91;16131724;19;130758;-42
